Busy Bee — BUSYB — position and weather

sailwx.info

Track history (hours):
 
Tides and Currents Weather Stations Pressure Air Temp Water Temp Dewpoint Dewpoint Depression Visibility Wind Speed Wind Dir Waves Ship Positions

Busy Bee

Last reported at 2016-Aug-21 10:33 UTC. Time now 2016-Aug-25 23:47 UTC.
Position N 34°42' E 135°19'.

Length 15 m.

Type: Sailing vessel. MMSI: 431002814.

Date/timePositionNaut miles runAvg speedWind from/ knotsBaromVisibWave heightAir tempDewpointWater temp
2016-Aug-21 10:33N 34°42' E 135°19'  
2016-Aug-18 11:22N 34°43' E 135°20'5 5.5
2016-Aug-18 10:32N 34°39' E 135°17'2 1.9
2016-Aug-18 09:31N 34°38' E 135°15'0 0.3
2016-Aug-18 08:28N 34°38' E 135°15'0 0.1
2016-Aug-18 07:26N 34°38' E 135°14'4 4.0
2016-Aug-18 06:34N 34°40' E 135°18'2 0.1
2016-Aug-16 10:10N 34°42' E 135°19'4 6.7
2016-Aug-16 09:30N 34°39' E 135°16'1 1.2
2016-Aug-16 08:18N 34°38' E 135°14'0 0.0
2016-Aug-16 07:18N 34°38' E 135°14'2 2.6
2016-Aug-16 06:33N 34°39' E 135°17'  
Track history (hours):
 
Tides and Currents Weather Stations Pressure Air Temp Water Temp Dewpoint Dewpoint Depression Visibility Wind Speed Wind Dir Waves Ship Positions

Busy Bee

Last reported at 2016-Aug-21 10:33 UTC. Time now 2016-Aug-25 23:47 UTC.
Position N 34°42' E 135°19'.

Length 15 m.

Type: Sailing vessel. MMSI: 431002814.

Date/timePositionNaut miles runAvg speedWind from/ knotsBaromVisibWave heightAir tempDewpointWater temp
2016-Aug-21 10:33N 34°42' E 135°19'  
2016-Aug-18 11:22N 34°43' E 135°20'5 5.5
2016-Aug-18 10:32N 34°39' E 135°17'2 1.9
2016-Aug-18 09:31N 34°38' E 135°15'0 0.3
2016-Aug-18 08:28N 34°38' E 135°15'0 0.1
2016-Aug-18 07:26N 34°38' E 135°14'4 4.0
2016-Aug-18 06:34N 34°40' E 135°18'2 0.1
2016-Aug-16 10:10N 34°42' E 135°19'4 6.7
2016-Aug-16 09:30N 34°39' E 135°16'1 1.2
2016-Aug-16 08:18N 34°38' E 135°14'0 0.0
2016-Aug-16 07:18N 34°38' E 135°14'2 2.6
2016-Aug-16 06:33N 34°39' E 135°17'  

Dump ship's entire track history